AirNav   Everest Fuels
 
 719 users online  

0MA6 WBZ Heliport
Boston, Massachusetts, USA

GOING TO BOSTON?


FAA INFORMATION EFFECTIVE 18 JUNE 2020

Location

FAA Identifier: 0MA6
Lat/Long: 42-21-54.3490N 071-07-57.1900W
42-21.905817N 071-07.953167W
42.3650969,-71.1325528
(estimated)
Elevation: 9 ft. / 3 m (estimated)
Variation: 16W (1985)
Time zone: UTC -4 (UTC -5 during Standard Time)
Zip code: 02134

Heliport Operations

Heliport use: Private use. Permission required prior to landing
Activation date: 07/1981
Control tower: no
ARTCC: BOSTON CENTER
FSS: BRIDGEPORT FLIGHT SERVICE STATION
Attendance: UNATNDD
Wind indicator: yes
Segmented circle: no

Heliport Communications

WX ASOS at BOS (6 nm E): PHONE 617-567-5762
WX ASOS at BED (9 nm NW): 124.6 (781-274-9733)
WX ASOS at OWD (11 nm S): 119.95 (781-762-4314)
WX ASOS at BVY (16 nm NE): PHONE 978-921-5042

Nearby radio navigation aids

VOR radial/distance  VOR name  Freq  Var
BOSr290/6.4BOSTON VOR/DME112.7016W
LWMr199/22.6LAWRENCE VOR/DME112.5015W
MHTr176/32.0MANCHESTER VOR/DME114.4015W

 
NDB name  Hdg/Dist  Freq  Var  ID
STOGE014/14.739715WOW --- .--

Heliport Services

Runway Information

Helipad H1

Dimensions: 50 x 50 ft. / 15 x 15 m
Surface: asphalt
Latitude: 42-21.905817N
Longitude: 071-07.953167W
Elevation: 9.0 ft.
Traffic pattern: leftleft
Markings: , in fair condition

Heliport Ownership and Management from official FAA records

Ownership: Privately-owned
Owner: CBS CORPORATION
1170 SOLDIERS FIELD RD
BOSTON, MA 02134
Phone 617-787-7300
Manager: PAUL A. PABIS
1170 SOLDIERS FIELD RD
BOSTON, MA 02134
Phone 617-787-7056

Additional Remarks

FOR CD CTC BOSTON APCH AT 603-594-5551.

Instrument Procedures

There are no published instrument procedures at 0MA6.

Some nearby airports with instrument procedures:

KBOS - General Edward Lawrence Logan International Airport (6 nm E)
KBED - Laurence G Hanscom Field Airport (9 nm NW)
KOWD - Norwood Memorial Airport (11 nm S)
KBVY - Beverly Regional Airport (16 nm NE)
6B6 - Minute Man Air Field (18 nm W)
 
Loc | Ops | Rwys | IFR | FBO | Links
Com | Nav | Svcs | Stats | Notes
Area around 0MA6 (WBZ Heliport)
 
Road maps at: MapQuest Bing Google
 
Aerial photo
No photo
 
Sectional chart

 
Airport distance calculator
Flying to WBZ Heliport? Find the distance to fly.

From to 0MA6

Sunrise and sunset
Times for 05-Jul-2020
 Local
(UTC-4)
 Zulu
(UTC)
Morning civil twilight04:4108:41
Sunrise05:1509:15
Sunset20:2300:23
Evening civil twilight20:5700:57

Current date and time
Zulu (UTC)  05-Jul-2020 13:22:44
Local (UTC-4)  05-Jul-2020 09:22:44
 
METAR
KBOS 
5nm E 
051254Z 28004KT 10SM OVC013 22/18 A2996 RMK AO2 SLP143 T02170183
KBED 
10nm NW 
051251Z 24003KT 6SM BR OVC014 22/19 A2994 RMK AO2 SLP150 T02170189
KOWD 
11nm S 
051253Z 22005KT 9SM BKN015 23/18 A2995 RMK AO2 SLP142 T02280178
KBVY 
16nm NE 
051253Z 00000KT 5SM BR OVC006 21/19 A2994 RMK AO2 SLP134 T02060189 $
TAF
KBOS 
5nm E 
051120Z 0512/0618 21008KT P6SM OVC007 FM051500 14005KT P6SM SCT007 FM051800 13007KT P6SM VCTS BKN050CB FM060200 19010KT P6SM VCSH BKN040 FM060600 27008KT P6SM BKN070
KBED 
10nm NW 
051120Z 0512/0612 22004KT P6SM OVC011 FM051400 21004KT P6SM SCT020 FM051700 20005KT P6SM VCTS BKN050CB FM060300 23003KT P6SM BKN050 FM060800 33003KT 2SM BR SCT250
NOTAMs
Click for the latest NOTAMs
NOTAMs are issued by the DoD/FAA and will open in a separate window not controlled by AirNav.

 

 
 

Would you like to see your business listed on this page?

 If your business provides an interesting product or service to pilots, flight crews, aircraft, or users of the WBZ Heliport, you should consider listing it here.  To start the listing process, click on the button below
 
Add a business
 

Other Pages about WBZ Heliport

Update a link
 
Copyright © AirNav, LLC. All rights reserved. Privacy Policy  Contact